»·PEaware :: N132KT 62CL-KSJC

N132KT :: 62CL-KSJC

FLIGHT INFORMATION

Flight Status: Arrived
Operator: Privately registered:
United States
More flights under this callsign
Pilot: Keith S. (1)
Aircraft: MITSUBISHI MU-2 MARQUISE
(MU2)
More flights by this aircraft type
Origin: 62CL Flying S Ranch
United States
Destination: KSJC Mineta San Jose Intl
United States
More flights between these airports :: More routes between these airports
Route:
File this flight plan on PilotEdge
Remarks:
Altitude:
(Current/Filed)
16,500ft
Speed:
(Current/Filed)
320kts
Departed: 04-Apr-19 06:06 AM
Arrived: 04-Apr-19 06:56 AM
Distance/Time
Traveled:
203nm/0:50
Distance/Time
To Go:
Arrived

Flight Plot

Page will automatically refresh every two minutes.

Flight plan parsing failed; only flown route is shown


Map Options




Map Legend


Flown Route
Filed Route
Departure Airport
Arrival Airport
Navaid (VOR, NDB)
Fix

Horizontal Profiles

Position Reports

Time Latitude Longitude Heading Altitude Ground
Speed
04-Apr-19 06:04 35.406669 -118.506171 61 3434ft 3kts
04-Apr-19 06:05 35.400629 -118.467883 117 4105ft 182kts
04-Apr-19 06:06 35.417852 -118.425972 342 6386ft 185kts
04-Apr-19 06:07 35.461112 -118.459040 302 8602ft 191kts
04-Apr-19 06:08 35.494446 -118.518760 303 10197ft 222kts
04-Apr-19 06:09 35.530930 -118.582346 302 12036ft 233kts
04-Apr-19 06:10 35.568992 -118.648669 302 13890ft 240kts
04-Apr-19 06:11 35.607272 -118.715514 301 15647ft 247kts
04-Apr-19 06:12 35.649005 -118.788849 301 16443ft 280kts
04-Apr-19 06:13 35.695333 -118.869891 301 16442ft 294kts
04-Apr-19 06:14 35.742857 -118.953486 301 16448ft 299kts
04-Apr-19 06:15 35.790920 -119.038329 301 16453ft 304kts
04-Apr-19 06:16 35.839741 -119.124684 301 16454ft 306kts
04-Apr-19 06:17 35.888619 -119.211305 301 16452ft 306kts
04-Apr-19 06:18 35.937465 -119.298056 301 16453ft 307kts
04-Apr-19 06:19 35.986333 -119.385056 301 16450ft 307kts
04-Apr-19 06:20 36.035145 -119.472167 301 16443ft 307kts
04-Apr-19 06:21 36.083823 -119.559257 301 16439ft 307kts
04-Apr-19 06:22 36.132248 -119.646095 301 16434ft 307kts
04-Apr-19 06:23 36.180292 -119.732470 300 16435ft 306kts
04-Apr-19 06:24 36.228686 -119.819696 300 16437ft 306kts
04-Apr-19 06:25 36.277010 -119.907031 300 16441ft 306kts
04-Apr-19 06:26 36.325089 -119.994141 300 16444ft 306kts
04-Apr-19 06:27 36.373389 -120.081888 300 16445ft 306kts
04-Apr-19 06:28 36.421584 -120.169665 300 16445ft 306kts
04-Apr-19 06:29 36.469655 -120.257447 300 16446ft 306kts
04-Apr-19 06:30 36.517743 -120.345479 300 16446ft 306kts
04-Apr-19 06:31 36.565662 -120.433431 300 16446ft 306kts
04-Apr-19 06:32 36.613511 -120.521485 300 16445ft 306kts
04-Apr-19 06:33 36.661471 -120.609982 300 16442ft 306kts
04-Apr-19 06:34 36.705676 -120.691764 300 16440ft 306kts
04-Apr-19 06:35 36.753285 -120.780038 300 16445ft 306kts
04-Apr-19 06:36 36.801327 -120.869325 300 16459ft 306kts
04-Apr-19 06:37 36.848976 -120.958101 300 16473ft 306kts
04-Apr-19 06:38 36.896607 -121.047138 300 16475ft 305kts
04-Apr-19 06:39 36.943929 -121.135824 300 16475ft 304kts
04-Apr-19 06:40 36.991161 -121.224528 300 16462ft 304kts
04-Apr-19 06:41 37.037314 -121.312578 300 15227ft 300kts
04-Apr-19 06:42 37.083245 -121.399563 300 13581ft 292kts
04-Apr-19 06:43 37.127256 -121.481553 300 11693ft 285kts
04-Apr-19 06:44 37.170043 -121.562788 301 10011ft 272kts
04-Apr-19 06:45 37.211324 -121.641339 301 8367ft 262kts
04-Apr-19 06:46 37.250979 -121.716977 302 6820ft 254kts
04-Apr-19 06:47 37.289476 -121.790517 303 5295ft 249kts
04-Apr-19 06:48 37.327436 -121.863163 303 3830ft 247kts
04-Apr-19 06:49 37.364815 -121.934823 304 2464ft 244kts
04-Apr-19 06:50 37.366503 -122.016647 266 1189ft 240kts
04-Apr-19 06:51 37.393800 -122.067206 26 1243ft 191kts
04-Apr-19 06:52 37.413528 -122.017545 127 1271ft 178kts
04-Apr-19 06:53 37.393123 -121.965841 112 853ft 163kts
04-Apr-19 06:54 37.368521 -121.936258 138 50ft 112kts
04-Apr-19 06:55 37.357895 -121.924954 177 46ft 17kts
04-Apr-19 06:56 37.355787 -121.927109 227 46ft 0kts
04-Apr-19 06:57 37.355787 -121.927109 227 46ft 0kts

Navigation Log

Ident Type
Flight plan parsing failed, navigation log unavailable